Time;durP1;ratioP1;P1;durP2;ratioP2;P2;SDS_P1;SDS_P2;PMS_P1;PMS_P2;Temp;Humidity;BMP_temperature;BMP_pressure;BME280_temperature;BME280_humidity;BME280_pressure;Samples;Min_cycle;Max_cycle;Signal;HPM_P1;HPM_P2
2022/07/01 00:01:44;;;;;;;9.20;4.27;;;;;;;22.94;88.97;100652.97;5093028;28;20451;-69
2022/07/01 00:04:11;;;;;;;5.87;4.33;;;;;;;22.94;88.83;100660.47;5093006;28;20507;-69
2022/07/01 00:06:38;;;;;;;6.97;4.27;;;;;;;22.94;89.15;100654.94;5092902;28;20466;-69
2022/07/01 00:09:05;;;;;;;5.10;4.07;;;;;;;22.91;89.01;100659.25;5092990;28;20539;-69
2022/07/01 00:11:33;;;;;;;5.20;3.70;;;;;;;22.89;89.09;100658.81;5092667;28;20859;-69
2022/07/01 00:14:00;;;;;;;6.63;3.70;;;;;;;22.86;89.50;100654.84;5092961;28;20509;-69
2022/07/01 00:16:26;;;;;;;4.50;3.50;;;;;;;22.85;89.23;100652.47;5093189;28;20442;-69
2022/07/01 00:18:53;;;;;;;5.30;4.37;;;;;;;22.84;89.51;100651.69;5092694;28;20567;-68
2022/07/01 00:21:19;;;;;;;5.33;3.60;;;;;;;22.81;89.63;100652.44;5092595;28;20960;-68
2022/07/01 00:23:46;;;;;;;6.47;4.30;;;;;;;22.82;89.82;100653.22;5092873;28;20444;-70
2022/07/01 00:26:13;;;;;;;8.03;4.30;;;;;;;22.81;89.95;100643.38;5094669;28;20527;-69
2022/07/01 00:28:40;;;;;;;6.43;4.40;;;;;;;22.76;90.04;100638.19;5096340;28;20487;-69
2022/07/01 00:31:07;;;;;;;6.77;4.10;;;;;;;22.74;90.32;100635.81;5096524;28;20444;-69
2022/07/01 00:33:34;;;;;;;5.40;4.60;;;;;;;22.72;90.28;100637.38;5096417;28;20440;-70
2022/07/01 00:36:00;;;;;;;4.77;3.83;;;;;;;22.65;90.36;100633.38;5096511;28;20453;-70
2022/07/01 00:38:27;;;;;;;8.30;4.90;;;;;;;22.66;89.97;100631.41;5097271;28;20869;-69
2022/07/01 00:40:54;;;;;;;6.60;4.03;;;;;;;22.65;90.38;100633.38;5096294;28;20527;-69
2022/07/01 00:43:22;;;;;;;6.70;4.90;;;;;;;22.66;90.10;100625.88;5096272;28;20444;-69
2022/07/01 00:45:51;;;;;;;5.63;4.20;;;;;;;22.68;90.45;100620.78;5096091;28;20440;-69
2022/07/01 00:48:19;;;;;;;8.73;4.00;;;;;;;22.65;90.60;100616.81;5096146;28;20464;-69
2022/07/01 00:50:46;;;;;;;6.90;4.60;;;;;;;22.66;90.63;100620.34;5095739;28;20437;-69
2022/07/01 00:53:13;;;;;;;7.87;4.90;;;;;;;22.62;90.71;100622.28;5095686;28;20440;-69
2022/07/01 00:55:41;;;;;;;7.60;4.30;;;;;;;22.62;90.73;100633.34;5095823;28;20447;-70
2022/07/01 00:58:08;;;;;;;4.90;3.80;;;;;;;22.60;90.98;100628.19;5095894;28;20901;-70
2022/07/01 01:00:36;;;;;;;8.77;4.90;;;;;;;22.62;90.78;100627.81;5095529;28;20560;-68
2022/07/01 01:03:06;;;;;;;7.83;5.20;;;;;;;22.61;91.26;100632.53;5095464;28;20834;-69
2022/07/01 01:05:33;;;;;;;5.20;4.20;;;;;;;22.62;91.52;100625.88;5095745;28;20472;-70
2022/07/01 01:07:59;;;;;;;5.83;4.10;;;;;;;22.63;91.56;100637.69;5095693;28;20518;-69
2022/07/01 01:10:27;;;;;;;7.40;4.90;;;;;;;22.64;91.25;100631.00;5095438;28;20432;-69
2022/07/01 01:12:55;;;;;;;5.70;4.77;;;;;;;22.62;91.79;100633.34;5095715;28;20436;-69
2022/07/01 01:15:22;;;;;;;6.80;4.77;;;;;;;22.63;91.48;100634.94;5095524;28;20451;-70
2022/07/01 01:17:49;;;;;;;8.83;5.17;;;;;;;22.62;91.57;100636.09;5095573;28;20552;-70
2022/07/01 01:20:17;;;;;;;8.93;5.27;;;;;;;22.59;92.10;100640.44;5095814;28;20483;-68
2022/07/01 01:22:46;;;;;;;7.23;5.03;;;;;;;22.58;92.10;100632.53;5095467;28;20450;-70
2022/07/01 01:25:13;;;;;;;9.40;4.40;;;;;;;22.59;92.32;100631.34;5095475;28;20448;-71
2022/07/01 01:27:40;;;;;;;7.20;4.20;;;;;;;22.57;92.68;100636.44;5095382;28;20464;-66
2022/07/01 01:30:09;;;;;;;9.43;5.40;;;;;;;22.52;92.64;100634.03;5095239;28;20439;-68
2022/07/01 01:32:36;;;;;;;8.80;5.10;;;;;;;22.50;93.05;100626.16;5095319;28;20531;-70
2022/07/01 01:35:03;;;;;;;6.23;4.93;;;;;;;22.50;92.92;100619.84;5095234;28;20441;-69
2022/07/01 01:37:30;;;;;;;9.63;5.70;;;;;;;22.46;93.12;100613.50;5094418;28;20482;-69
2022/07/01 01:39:58;;;;;;;7.33;5.60;;;;;;;22.46;92.99;100610.72;5095032;28;20482;-69
2022/07/01 01:42:25;;;;;;;9.00;5.40;;;;;;;22.45;93.44;100607.19;5095205;28;20451;-69
2022/07/01 01:44:51;;;;;;;7.93;4.80;;;;;;;22.41;93.13;100600.84;5094657;28;20441;-67
2022/07/01 01:47:18;;;;;;;11.10;5.60;;;;;;;22.39;93.57;100590.16;5094828;28;20453;-69
2022/07/01 01:49:45;;;;;;;7.93;4.93;;;;;;;22.36;93.80;100595.66;5094616;28;20441;-71
2022/07/01 01:52:11;;;;;;;7.20;4.77;;;;;;;22.32;94.13;100598.38;5094991;28;20476;-69
2022/07/01 01:54:38;;;;;;;7.73;5.40;;;;;;;22.28;94.44;100591.25;5094670;28;20535;-68
2022/07/01 01:57:06;;;;;;;6.53;5.30;;;;;;;22.27;94.13;100590.47;5094758;28;20465;-69
2022/07/01 01:59:33;;;;;;;10.40;5.83;;;;;;;22.25;94.91;100590.03;5094761;28;20571;-70
2022/07/01 02:01:59;;;;;;;10.03;5.17;;;;;;;22.18;95.26;100584.47;5094697;28;20881;-70
2022/07/01 02:04:26;;;;;;;12.13;6.10;;;;;;;22.20;95.67;100589.59;5094676;28;20443;-69
2022/07/01 02:06:53;;;;;;;6.80;5.50;;;;;;;22.17;95.68;100585.63;5094267;28;21047;-69
2022/07/01 02:09:21;;;;;;;8.27;5.93;;;;;;;22.17;95.93;100591.13;5094563;28;20527;-69
2022/07/01 02:11:48;;;;;;;8.50;5.07;;;;;;;22.19;96.11;100585.25;5094204;28;20949;-69
2022/07/01 02:14:16;;;;;;;7.63;4.83;;;;;;;22.17;96.35;100585.63;5094535;28;20815;-67
2022/07/01 02:16:42;;;;;;;7.50;5.40;;;;;;;22.19;96.13;100579.75;5094366;28;20540;-68
2022/07/01 02:19:09;;;;;;;10.17;7.23;;;;;;;22.16;96.38;100573.00;5094053;28;20444;-68
2022/07/01 02:21:36;;;;;;;8.87;5.57;;;;;;;22.17;96.29;100571.81;5093963;28;20446;-68
2022/07/01 02:24:02;;;;;;;8.07;5.37;;;;;;;22.17;96.32;100580.09;5094414;28;20487;-68
2022/07/01 02:26:29;;;;;;;9.30;5.80;;;;;;;22.14;96.49;100580.88;5094458;28;20440;-68
2022/07/01 02:28:55;;;;;;;9.47;5.53;;;;;;;22.12;96.40;100592.28;5094190;28;20446;-68
2022/07/01 02:31:23;;;;;;;7.53;5.57;;;;;;;22.10;96.57;100583.56;5094238;28;20882;-68
2022/07/01 02:33:50;;;;;;;8.13;5.20;;;;;;;22.11;97.13;100587.91;5094204;28;20535;-68
2022/07/01 02:36:16;;;;;;;12.03;6.70;;;;;;;22.08;97.27;100588.66;5094059;28;20529;-68
2022/07/01 02:38:43;;;;;;;9.40;6.30;;;;;;;22.08;97.25;100593.38;5093638;28;20460;-69
2022/07/01 02:41:09;;;;;;;8.20;6.10;;;;;;;22.07;97.45;100600.09;5093900;28;20484;-68
2022/07/01 02:43:36;;;;;;;11.53;7.03;;;;;;;22.07;97.65;100608.34;5094025;28;20479;-69
2022/07/01 02:46:03;;;;;;;10.37;6.40;;;;;;;22.08;97.45;100609.94;5093965;28;20464;-68
2022/07/01 02:48:31;;;;;;;12.13;6.70;;;;;;;22.09;97.57;100606.00;5093553;28;20468;-69
2022/07/01 02:50:57;;;;;;;11.60;6.33;;;;;;;22.08;97.75;100605.22;5093065;28;20534;-68
2022/07/01 02:53:24;;;;;;;10.93;6.57;;;;;;;22.07;97.76;100609.16;5093395;28;20965;-68
2022/07/01 02:55:51;;;;;;;10.90;7.33;;;;;;;22.06;97.82;100612.28;5094080;28;20535;-68
2022/07/01 02:58:18;;;;;;;12.90;6.90;;;;;;;22.06;98.45;100615.06;5093580;28;20501;-69
2022/07/01 03:00:45;;;;;;;7.50;5.37;;;;;;;22.07;98.29;100616.63;5093577;28;20542;-68
2022/07/01 03:03:11;;;;;;;10.83;6.30;;;;;;;22.10;98.54;100624.94;5093307;28;20535;-68
2022/07/01 03:05:39;;;;;;;11.53;6.70;;;;;;;22.10;98.71;100613.13;5093603;28;20816;-68
2022/07/01 03:08:06;;;;;;;14.43;8.13;;;;;;;22.10;98.66;100613.91;5093177;28;20989;-68
2022/07/01 03:10:33;;;;;;;11.03;6.70;;;;;;;22.09;98.97;100608.75;5093925;28;20523;-69
2022/07/01 03:13:01;;;;;;;10.20;6.07;;;;;;;22.11;99.06;100611.94;5093493;28;20532;-68
2022/07/01 03:15:28;;;;;;;10.47;6.97;;;;;;;22.12;98.62;100610.81;5093535;28;20436;-69
2022/07/01 03:17:55;;;;;;;13.30;7.53;;;;;;;22.14;98.69;100616.75;5093290;28;20475;-69
2022/07/01 03:20:21;;;;;;;10.70;7.43;;;;;;;22.14;98.87;100614.78;5093327;28;20515;-68
2022/07/01 03:22:50;;;;;;;10.80;7.33;;;;;;;22.16;98.72;100622.66;5093390;28;20535;-69
2022/07/01 03:25:17;;;;;;;13.33;8.17;;;;;;;22.16;98.56;100617.16;5093426;28;20436;-68
2022/07/01 03:27:47;;;;;;;11.67;7.23;;;;;;;22.15;98.74;100615.56;5093281;28;20469;-68
2022/07/01 03:30:15;;;;;;;9.87;6.70;;;;;;;22.16;99.08;100611.63;5093591;28;20536;-69
2022/07/01 03:32:41;;;;;;;12.97;7.60;;;;;;;22.18;98.97;100609.31;5093016;28;20999;-69
2022/07/01 03:37:51;;;;;;;10.10;6.93;;;;;;;22.18;99.13;100598.25;5092916;28;20476;-67
2022/07/01 03:40:17;;;;;;;9.57;6.10;;;;;;;22.23;99.62;100608.16;5093110;28;20579;-68
2022/07/01 03:42:44;;;;;;;11.77;7.67;;;;;;;22.27;99.88;100614.47;5093448;28;20433;-68
2022/07/01 03:45:11;;;;;;;12.50;7.00;;;;;;;22.27;99.72;100606.19;5093350;28;20468;-69
2022/07/01 03:47:37;;;;;;;11.70;7.23;;;;;;;22.30;99.98;100610.97;5093253;28;20474;-69
2022/07/01 03:50:05;;;;;;;10.87;5.87;;;;;;;22.32;100.00;100620.47;5093179;28;20451;-70
2022/07/01 03:52:31;;;;;;;10.03;6.80;;;;;;;22.36;100.00;100621.31;5093126;28;20476;-69
2022/07/01 03:54:58;;;;;;;12.50;7.73;;;;;;;22.41;100.00;100611.88;5092830;28;20981;-68
2022/07/01 03:57:25;;;;;;;9.17;7.00;;;;;;;22.47;100.00;100615.88;5093029;28;20460;-68
2022/07/01 03:59:52;;;;;;;24.30;7.53;;;;;;;22.51;100.00;100613.13;5093047;28;20567;-68
2022/07/01 04:02:18;;;;;;;10.83;7.80;;;;;;;22.56;100.00;100613.56;5096548;28;20483;-68
2022/07/01 04:04:45;;;;;;;15.80;8.07;;;;;;;22.60;100.00;100600.59;5096996;28;20535;-68
2022/07/01 04:07:12;;;;;;;14.17;7.43;;;;;;;22.67;100.00;100602.63;5096532;28;21050;-69
2022/07/01 04:09:38;;;;;;;12.90;7.40;;;;;;;22.70;100.00;100599.09;5097215;28;20444;-67
2022/07/01 04:12:09;;;;;;;14.67;8.07;;;;;;;22.72;100.00;100607.78;5096866;28;20526;-68
2022/07/01 04:14:36;;;;;;;11.77;7.33;;;;;;;22.75;99.94;100611.75;5096796;28;20417;-69
2022/07/01 04:17:03;;;;;;;18.33;7.77;;;;;;;22.77;100.00;100606.63;5096752;28;20478;-68
2022/07/01 04:19:30;;;;;;;16.97;8.13;;;;;;;22.81;99.71;100615.75;5096585;28;20444;-68
2022/07/01 04:24:41;;;;;;;14.70;8.40;;;;;;;22.88;99.45;100618.53;5096745;28;20451;-69
2022/07/01 04:27:09;;;;;;;10.27;6.20;;;;;;;22.92;99.19;100614.66;5096934;28;20543;-68
2022/07/01 04:29:36;;;;;;;11.90;7.83;;;;;;;22.98;99.16;100623.41;5096187;28;20454;-70
2022/07/01 04:32:03;;;;;;;17.53;7.93;;;;;;;23.02;98.96;100618.69;5096553;28;20483;-68
2022/07/01 04:34:30;;;;;;;10.13;6.13;;;;;;;23.07;98.64;100612.81;5096069;28;20938;-67
2022/07/01 04:36:56;;;;;;;14.60;7.43;;;;;;;23.15;98.56;100613.63;5096198;28;20563;-69
2022/07/01 04:39:23;;;;;;;10.90;6.80;;;;;;;23.12;98.64;100612.44;5095952;28;20535;-68
2022/07/01 04:42:01;;;;;;;12.63;6.90;;;;;;;23.18;98.15;100615.63;5096202;28;20558;-69
2022/07/01 04:44:30;;;;;;;14.33;8.40;;;;;;;23.23;97.64;100612.47;5096373;28;20428;-68
2022/07/01 04:46:56;;;;;;;12.80;8.27;;;;;;;23.24;97.81;100614.09;5096234;28;20479;-70
2022/07/01 04:49:23;;;;;;;9.87;6.63;;;;;;;23.31;97.11;100613.31;5096184;28;20543;-69
2022/07/01 04:51:50;;;;;;;13.70;7.40;;;;;;;23.36;97.21;100613.72;5095684;28;20833;-72
2022/07/01 04:54:17;;;;;;;12.53;7.10;;;;;;;23.45;96.95;100618.91;5095890;28;20981;-70
2022/07/01 04:56:43;;;;;;;10.40;8.30;;;;;;;23.50;96.85;100618.53;5096036;28;20495;-71
2022/07/01 04:59:10;;;;;;;11.87;7.90;;;;;;;23.63;96.77;100632.81;5096198;28;20984;-72
2022/07/01 05:01:38;;;;;;;14.57;7.40;;;;;;;23.80;95.59;100640.41;5095925;28;20480;-71
2022/07/01 05:04:05;;;;;;;10.90;6.83;;;;;;;24.02;94.36;100666.19;5095910;28;20441;-71
2022/07/01 05:06:33;;;;;;;17.60;8.13;;;;;;;24.16;92.75;100682.84;5095516;28;20476;-72
2022/07/01 05:09:00;;;;;;;16.73;8.23;;;;;;;24.34;91.36;100693.16;5095964;28;20444;-71
2022/07/01 05:11:27;;;;;;;14.23;7.77;;;;;;;24.47;89.42;100696.38;5095650;28;20524;-68
2022/07/01 05:13:53;;;;;;;12.03;7.27;;;;;;;24.60;88.40;100703.91;5094869;28;20529;-67
2022/07/01 05:16:20;;;;;;;9.47;6.60;;;;;;;24.65;87.63;100697.19;5095657;28;20531;-67
2022/07/01 05:24:16;;;;;;;8.50;6.80;;;;;;;24.74;86.92;100705.91;5095264;28;20530;-69
2022/07/01 05:26:43;;;;;;;9.80;7.23;;;;;;;24.78;86.97;100701.16;5095464;28;20460;-69
2022/07/01 05:29:09;;;;;;;9.53;6.70;;;;;;;24.81;87.58;100699.59;5095284;28;20523;-69
2022/07/01 05:31:36;;;;;;;9.23;6.33;;;;;;;24.83;86.77;100703.53;5095556;28;20527;-68
2022/07/01 05:34:04;;;;;;;17.37;7.50;;;;;;;24.77;85.71;100710.66;5095009;28;20535;-69
2022/07/01 05:36:30;;;;;;;11.83;7.07;;;;;;;24.74;86.27;100705.91;5095033;28;20523;-70
2022/07/01 05:38:57;;;;;;;11.40;6.60;;;;;;;24.68;86.49;100713.03;5095199;28;20428;-69
2022/07/01 05:41:24;;;;;;;9.27;6.90;;;;;;;24.67;87.27;100720.56;5095070;28;20491;-68
2022/07/01 05:43:50;;;;;;;9.67;6.40;;;;;;;24.70;87.34;100723.72;5095087;28;20441;-68
2022/07/01 05:46:17;;;;;;;12.23;6.30;;;;;;;24.57;88.02;100732.44;5095000;28;20529;-68
2022/07/01 05:48:43;;;;;;;11.37;7.00;;;;;;;24.57;87.91;100735.19;5095050;28;20543;-68
2022/07/01 05:51:11;;;;;;;11.90;6.93;;;;;;;24.53;88.45;100728.06;5094949;28;20476;-69
2022/07/01 05:53:38;;;;;;;18.40;8.27;;;;;;;24.53;88.55;100736.38;5095103;28;20523;-68
2022/07/01 05:56:05;;;;;;;15.50;8.70;;;;;;;24.55;87.72;100745.06;5094431;28;20444;-69
2022/07/01 05:58:32;;;;;;;13.90;7.63;;;;;;;24.44;88.83;100758.09;5094674;28;20468;-70
2022/07/01 06:00:58;;;;;;;9.70;7.20;;;;;;;24.35;89.22;100753.72;5094618;28;21000;-68
2022/07/01 06:03:25;;;;;;;12.10;7.97;;;;;;;24.37;89.48;100758.88;5094426;28;20942;-68
2022/07/01 06:05:52;;;;;;;10.03;6.50;;;;;;;24.46;88.89;100761.28;5094638;28;20530;-69
2022/07/01 06:08:19;;;;;;;12.17;8.13;;;;;;;24.41;88.96;100773.53;5094086;28;20543;-70
2022/07/01 06:10:46;;;;;;;16.57;8.87;;;;;;;24.34;88.25;100774.25;5094598;28;20436;-70
2022/07/01 06:13:14;;;;;;;14.23;8.10;;;;;;;24.23;88.94;100762.34;5094585;28;20467;-70
2022/07/01 06:15:40;;;;;;;9.10;7.40;;;;;;;24.08;90.09;100755.16;5094433;28;20480;-70
2022/07/01 06:18:07;;;;;;;12.20;8.03;;;;;;;23.99;90.21;100752.75;5094058;28;20895;-69
2022/07/01 06:20:34;;;;;;;26.53;8.30;;;;;;;23.90;90.92;100755.09;5094374;28;20567;-69
2022/07/01 06:23:00;;;;;;;10.57;7.63;;;;;;;23.88;91.41;100752.72;5094194;28;20841;-70
2022/07/01 06:25:28;;;;;;;11.80;8.00;;;;;;;23.91;91.63;100756.69;5094374;28;20521;-70
2022/07/01 06:27:55;;;;;;;13.07;7.90;;;;;;;23.98;90.71;100750.38;5094259;28;20460;-70
2022/07/01 06:30:22;;;;;;;11.90;7.90;;;;;;;24.05;90.60;100750.44;5093770;28;20440;-70
2022/07/01 06:32:48;;;;;;;13.40;8.33;;;;;;;24.09;91.21;100751.25;5093888;28;20444;-68
2022/07/01 06:35:15;;;;;;;11.23;7.80;;;;;;;24.18;89.21;100743.38;5093972;28;20462;-69
2022/07/01 06:37:42;;;;;;;9.80;6.33;;;;;;;24.23;89.05;100747.72;5093224;28;20926;-70
2022/07/01 06:40:09;;;;;;;15.90;6.90;;;;;;;24.25;89.42;100759.19;5093591;28;20527;-69
2022/07/01 06:42:37;;;;;;;11.87;7.90;;;;;;;24.24;89.32;100763.94;5093638;28;20484;-69
2022/07/01 06:45:04;;;;;;;10.97;6.90;;;;;;;24.20;88.60;100756.81;5093629;28;20476;-69
2022/07/01 06:47:31;;;;;;;11.73;7.60;;;;;;;24.21;89.61;100759.16;5093569;28;20493;-70
2022/07/01 06:49:57;;;;;;;10.23;7.50;;;;;;;24.29;88.06;100760.00;5093406;28;20528;-69
2022/07/01 06:52:25;;;;;;;11.20;7.03;;;;;;;24.32;88.63;100754.47;5093376;28;21021;-69
2022/07/01 06:54:51;;;;;;;10.83;7.13;;;;;;;24.31;88.23;100760.41;5093566;28;20448;-69
2022/07/01 06:57:18;;;;;;;16.43;7.70;;;;;;;24.34;87.45;100763.19;5093169;28;20574;-70
2022/07/01 06:59:46;;;;;;;9.13;6.87;;;;;;;24.30;87.07;100756.81;5093612;28;20436;-71
2022/07/01 07:02:13;;;;;;;13.43;6.90;;;;;;;24.31;85.79;100746.56;5093317;28;20480;-71
2022/07/01 07:04:39;;;;;;;9.80;7.40;;;;;;;24.41;85.92;100746.63;5093371;28;20455;-71
2022/07/01 07:07:06;;;;;;;8.20;6.70;;;;;;;24.53;83.72;100742.72;5093308;28;20470;-71
2022/07/01 07:09:33;;;;;;;9.20;6.77;;;;;;;24.53;84.41;100744.69;5093056;28;20448;-71
2022/07/01 07:11:59;;;;;;;10.03;7.43;;;;;;;24.67;82.20;100739.16;5092960;28;20942;-70
2022/07/01 07:14:26;;;;;;;7.40;5.67;;;;;;;24.69;81.69;100739.56;5092952;28;20941;-72
2022/07/01 07:16:55;;;;;;;8.53;5.83;;;;;;;24.70;81.63;100740.34;5092944;28;20521;-71
2022/07/01 07:19:21;;;;;;;10.50;5.20;;;;;;;24.77;81.87;100730.06;5093175;28;20451;-71
2022/07/01 07:21:48;;;;;;;9.47;6.60;;;;;;;24.81;81.33;100736.41;5092826;28;21034;-70
2022/07/01 07:24:15;;;;;;;9.13;6.67;;;;;;;24.80;81.27;100737.59;5092870;28;20960;-69
2022/07/01 07:26:42;;;;;;;8.97;6.37;;;;;;;24.83;80.55;100736.78;5093198;28;20885;-70
2022/07/01 07:29:08;;;;;;;8.00;6.30;;;;;;;24.76;79.90;100745.13;5093052;28;20452;-70
2022/07/01 07:31:35;;;;;;;8.47;5.47;;;;;;;24.86;80.64;100743.53;5092614;28;20445;-71
2022/07/01 07:34:03;;;;;;;10.10;5.80;;;;;;;24.96;80.42;100737.19;5093292;28;20873;-70
2022/07/01 07:36:30;;;;;;;8.93;5.70;;;;;;;25.05;80.88;100734.81;5095360;28;20475;-72
2022/07/01 07:38:56;;;;;;;10.43;5.73;;;;;;;25.21;79.04;100742.78;5097187;28;20526;-71
2022/07/01 07:41:23;;;;;;;9.93;4.60;;;;;;;25.37;78.75;100743.16;5097134;28;20512;-71
2022/07/01 07:43:50;;;;;;;7.40;5.27;;;;;;;25.51;79.57;100747.91;5097048;28;20444;-71
2022/07/01 07:46:17;;;;;;;8.13;5.33;;;;;;;25.54;79.37;100737.97;5096766;28;20472;-69
2022/07/01 07:48:44;;;;;;;7.43;5.70;;;;;;;25.63;78.06;100758.56;5096620;28;20444;-70
2022/07/01 07:51:16;;;;;;;9.07;5.30;;;;;;;25.77;78.02;100766.09;5097334;28;20521;-70
2022/07/01 07:53:43;;;;;;;10.37;6.30;;;;;;;26.00;78.52;100765.63;5096592;28;20784;-70
2022/07/01 07:56:10;;;;;;;10.90;6.53;;;;;;;25.96;76.40;100759.28;5096680;28;20523;-69
2022/07/01 07:58:36;;;;;;;12.10;4.67;;;;;;;26.03;76.67;100761.25;5096505;28;20492;-67
2022/07/01 08:01:03;;;;;;;8.10;5.83;;;;;;;26.13;76.29;100760.44;5096769;28;20565;-70
2022/07/01 08:03:30;;;;;;;10.93;6.33;;;;;;;26.08;76.66;100758.06;5097129;28;20530;-68
2022/07/01 08:05:56;;;;;;;9.57;6.30;;;;;;;26.00;75.58;100759.28;5096525;28;20478;-68
2022/07/01 08:08:24;;;;;;;6.37;5.73;;;;;;;26.00;76.27;100756.50;5096469;28;20491;-69
2022/07/01 08:10:51;;;;;;;6.40;4.60;;;;;;;26.06;75.07;100749.34;5096441;28;20436;-70
2022/07/01 08:13:17;;;;;;;5.73;4.63;;;;;;;26.08;74.11;100752.53;5096714;28;20440;-67
2022/07/01 08:15:44;;;;;;;6.93;5.47;;;;;;;25.95;73.08;100746.63;5096745;28;20497;-68
2022/07/01 08:18:11;;;;;;;9.43;5.20;;;;;;;25.89;73.70;100748.22;5096103;28;20848;-68
2022/07/01 08:20:37;;;;;;;8.07;5.03;;;;;;;25.88;74.68;100741.06;5096370;28;20539;-68
2022/07/01 08:23:04;;;;;;;5.50;4.10;;;;;;;25.82;75.44;100735.16;5096025;28;20483;-68
2022/07/01 08:25:32;;;;;;;5.50;4.03;;;;;;;25.86;73.99;100735.16;5096132;28;21013;-68
2022/07/01 08:27:58;;;;;;;9.10;5.13;;;;;;;25.85;74.94;100731.59;5095945;28;20492;-68
2022/07/01 08:30:25;;;;;;;6.83;5.00;;;;;;;25.89;74.36;100743.44;5095950;28;20805;-67
2022/07/01 08:32:52;;;;;;;5.77;4.03;;;;;;;25.97;72.56;100743.44;5096189;28;20448;-69
2022/07/01 08:35:18;;;;;;;6.70;4.20;;;;;;;25.94;71.53;100749.78;5095954;28;20976;-69
2022/07/01 08:37:45;;;;;;;7.23;3.77;;;;;;;26.06;70.39;100757.66;5095725;28;20468;-69
2022/07/01 08:40:12;;;;;;;4.67;3.80;;;;;;;26.05;67.73;100756.09;5096132;28;20881;-67
2022/07/01 08:42:40;;;;;;;5.37;4.20;;;;;;;25.99;71.08;100769.59;5095768;28;20567;-69
2022/07/01 08:45:07;;;;;;;4.67;4.07;;;;;;;26.08;71.28;100766.41;5095953;28;20481;-68
2022/07/01 08:47:34;;;;;;;6.87;4.30;;;;;;;26.20;69.62;100762.38;5094011;28;21060;-68
2022/07/01 08:50:02;;;;;;;8.03;3.73;;;;;;;26.19;69.36;100753.25;5096018;28;20436;-68
2022/07/01 08:52:29;;;;;;;5.77;3.50;;;;;;;26.41;69.46;100756.72;5095836;28;20433;-69
2022/07/01 08:54:55;;;;;;;4.27;3.30;;;;;;;26.73;67.38;100762.09;5095709;28;20513;-69
2022/07/01 08:57:22;;;;;;;4.43;3.10;;;;;;;26.91;67.65;100765.53;5095216;28;20499;-68
2022/07/01 09:00:03;;;;;;;4.97;2.80;;;;;;;26.99;63.95;100782.19;5095614;28;20447;-68
2022/07/01 09:02:50;;;;;;;6.83;3.23;;;;;;;26.94;65.51;100785.41;5095699;28;20474;-68
2022/07/01 09:05:17;;;;;;;3.93;2.07;;;;;;;26.32;68.95;100798.81;5096354;28;20504;-68
2022/07/01 09:07:43;;;;;;;2.20;1.80;;;;;;;26.01;70.96;100799.72;5096003;28;20569;-69
2022/07/01 09:10:14;;;;;;;2.03;1.47;;;;;;;25.78;71.80;100795.44;5096088;28;20531;-69
2022/07/01 09:12:41;;;;;;;2.80;1.70;;;;;;;25.60;72.78;100812.09;5095770;28;20498;-68
2022/07/01 09:15:25;;;;;;;2.33;1.50;;;;;;;25.44;75.13;100816.44;5095794;28;20836;-68
2022/07/01 09:17:53;;;;;;;1.40;1.23;;;;;;;25.53;74.52;100830.72;5095819;28;20460;-69
2022/07/01 09:20:28;;;;;;;2.00;1.50;;;;;;;25.30;73.65;100844.97;5095544;28;20444;-69
2022/07/01 09:23:04;;;;;;;2.00;1.40;;;;;;;24.94;74.17;100855.19;5095399;28;20563;-68
2022/07/01 09:25:33;;;;;;;2.03;1.30;;;;;;;24.52;76.06;100868.50;5095039;28;20452;-68
2022/07/01 09:28:08;;;;;;;2.23;1.20;;;;;;;24.05;76.56;100866.66;5094696;28;20499;-68
2022/07/01 09:30:37;;;;;;;1.33;0.93;;;;;;;23.59;78.85;100889.22;5095421;28;20420;-69
2022/07/01 09:33:09;;;;;;;1.10;0.77;;;;;;;23.20;80.87;100897.13;5094926;28;20495;-68
2022/07/01 09:35:36;;;;;;;1.83;0.87;;;;;;;22.79;81.42;100892.31;5095056;28;20531;-69
2022/07/01 09:38:03;;;;;;;0.93;0.60;;;;;;;22.26;83.33;100897.97;5094690;28;21024;-68
2022/07/01 09:40:50;;;;;;;4.00;0.83;;;;;;;22.02;84.68;100896.41;5095208;28;20442;-68
2022/07/01 09:43:18;;;;;;;1.10;0.80;;;;;;;21.73;86.15;100902.63;5094993;28;20472;-68
2022/07/01 09:45:55;;;;;;;1.00;0.63;;;;;;;21.35;89.06;100907.91;5094880;28;20531;-69
2022/07/01 09:48:23;;;;;;;1.20;0.80;;;;;;;21.24;89.69;100917.91;5094648;28;20546;-69
2022/07/01 09:50:50;;;;;;;1.60;0.77;;;;;;;21.11;90.31;100933.78;5094941;28;20535;-69
2022/07/01 09:53:16;;;;;;;3.33;0.83;;;;;;;21.04;90.51;100928.16;5095019;28;20524;-68
2022/07/01 09:55:43;;;;;;;1.60;1.20;;;;;;;20.96;91.27;100942.16;5094924;28;20523;-68
2022/07/01 09:58:10;;;;;;;4.90;1.00;;;;;;;20.81;91.80;100947.38;5094292;28;20543;-67
2022/07/01 10:00:38;;;;;;;1.23;0.90;;;;;;;20.56;92.25;100946.84;5094925;28;20449;-69
2022/07/01 10:03:07;;;;;;;2.63;1.00;;;;;;;20.36;93.01;100954.25;5094543;28;20570;-67
2022/07/01 10:05:39;;;;;;;1.60;1.00;;;;;;;20.34;94.10;100951.03;5094540;28;20523;-68
2022/07/01 10:08:18;;;;;;;1.00;0.77;;;;;;;20.33;93.88;100937.63;5094492;28;20502;-68
2022/07/01 10:10:49;;;;;;;1.90;1.30;;;;;;;20.21;95.46;100940.50;5094816;28;20503;-68
2022/07/01 10:13:18;;;;;;;2.27;1.07;;;;;;;20.22;94.92;100931.09;5094711;28;20511;-68
2022/07/01 10:15:48;;;;;;;2.77;1.23;;;;;;;20.24;94.70;100937.03;5094477;28;20452;-69
2022/07/01 10:18:22;;;;;;;2.37;1.20;;;;;;;20.11;96.11;100955.59;5094419;28;20468;-68
2022/07/01 10:20:50;;;;;;;1.97;1.40;;;;;;;20.09;95.58;100960.66;5094132;28;20991;-69
2022/07/01 10:23:17;;;;;;;2.50;1.50;;;;;;;20.07;95.35;100954.72;5094965;28;20564;-67
2022/07/01 10:25:45;;;;;;;2.73;1.33;;;;;;;19.98;96.14;100948.59;5094119;28;20479;-68
2022/07/01 10:28:22;;;;;;;1.93;1.33;;;;;;;20.00;96.00;100952.56;5094176;28;20547;-68
2022/07/01 10:30:54;;;;;;;2.20;1.40;;;;;;;19.98;95.96;100974.16;5093984;28;20432;-68
2022/07/01 10:33:39;;;;;;;2.67;1.40;;;;;;;19.88;96.33;100971.94;5094186;28;20516;-68
2022/07/01 10:36:07;;;;;;;2.30;1.77;;;;;;;19.88;96.82;100967.25;5093923;28;20425;-68
2022/07/01 10:38:34;;;;;;;2.53;1.17;;;;;;;19.82;97.49;100941.13;5093856;28;20472;-69
2022/07/01 10:41:09;;;;;;;1.33;0.93;;;;;;;19.87;98.26;100948.31;5094140;28;20527;-67
2022/07/01 10:43:37;;;;;;;0.80;0.53;;;;;;;19.88;97.90;100972.75;5093877;28;20471;-68
2022/07/01 10:46:05;;;;;;;2.00;1.00;;;;;;;19.85;98.68;101006.44;5093688;28;20475;-68
2022/07/01 10:48:34;;;;;;;3.77;1.20;;;;;;;19.72;100.00;101026.91;5094113;28;20869;-68
2022/07/01 10:51:01;;;;;;;2.43;1.30;;;;;;;19.57;100.00;101019.41;5093895;28;20437;-69
2022/07/01 10:53:45;;;;;;;11.53;1.00;;;;;;;19.29;100.00;101019.38;5093881;28;20532;-70
2022/07/01 10:56:17;;;;;;;9.60;1.43;;;;;;;18.96;100.00;101031.41;5093649;28;20424;-69
2022/07/01 10:58:43;;;;;;;1.60;1.13;;;;;;;18.70;100.00;101028.25;5093624;28;21010;-70
2022/07/01 11:01:10;;;;;;;3.57;1.03;;;;;;;18.29;100.00;101025.38;5093931;28;20440;-70
2022/07/01 11:03:39;;;;;;;2.83;1.20;;;;;;;18.12;100.00;101037.34;5093904;28;20480;-71
2022/07/01 11:06:07;;;;;;;1.70;1.00;;;;;;;17.96;100.00;101054.78;5094043;28;20487;-71
2022/07/01 11:08:33;;;;;;;1.57;1.20;;;;;;;17.88;100.00;101045.53;5093637;28;20460;-72
2022/07/01 11:11:04;;;;;;;1.20;0.90;;;;;;;17.85;100.00;101027.03;5093126;28;20476;-70
2022/07/01 11:13:31;;;;;;;1.20;0.70;;;;;;;17.81;100.00;101026.13;5093266;28;20963;-68
2022/07/01 11:15:58;;;;;;;1.20;0.83;;;;;;;17.78;100.00;101016.63;5093570;28;20444;-70
2022/07/01 11:18:25;;;;;;;2.07;1.37;;;;;;;17.80;100.00;101019.03;5093247;28;20487;-70
2022/07/01 11:20:53;;;;;;;1.50;0.90;;;;;;;17.77;100.00;101009.53;5093686;28;20535;-69
2022/07/01 11:23:22;;;;;;;1.20;0.80;;;;;;;17.72;100.00;100992.50;5093452;28;20488;-69
2022/07/01 11:25:49;;;;;;;0.90;0.70;;;;;;;17.67;100.00;100988.03;5093269;28;20877;-68
2022/07/01 11:28:16;;;;;;;1.43;1.00;;;;;;;17.61;100.00;100984.69;5093242;28;20988;-72
2022/07/01 11:30:42;;;;;;;2.70;1.27;;;;;;;17.57;100.00;101005.69;5083859;28;20459;-70
2022/07/01 11:33:10;;;;;;;1.73;0.93;;;;;;;17.51;100.00;101000.75;5071987;28;20524;-72
2022/07/01 11:41:18;;;;;;;3.83;1.57;;;;;;;17.44;100.00;100989.53;5073246;28;20402;-71